sensor_id;sensor_type;location;lat;lon;timestamp;pressure;altitude;pressure_sealevel;temperature;humidity
60087;BME280;45960;53.630;55.972;2023-02-13T00:00:10;100913.94;;;-9.89;59.68
60087;BME280;45960;53.630;55.972;2023-02-13T00:01:15;100907.19;;;-9.84;59.97
60087;BME280;45960;53.630;55.972;2023-02-13T00:02:16;100905.53;;;-9.82;59.86
60087;BME280;45960;53.630;55.972;2023-02-13T00:03:17;100905.69;;;-9.76;59.58
60087;BME280;45960;53.630;55.972;2023-02-13T00:04:18;100902.16;;;-9.78;59.38
60087;BME280;45960;53.630;55.972;2023-02-13T00:05:19;100894.34;;;-9.81;59.67
60087;BME280;45960;53.630;55.972;2023-02-13T00:06:20;100904.81;;;-9.76;59.45
60087;BME280;45960;53.630;55.972;2023-02-13T00:07:21;100902.31;;;-9.73;59.32
60087;BME280;45960;53.630;55.972;2023-02-13T00:08:22;100906.56;;;-9.75;59.54
60087;BME280;45960;53.630;55.972;2023-02-13T00:09:23;100898.78;;;-9.77;59.61
60087;BME280;45960;53.630;55.972;2023-02-13T00:10:24;100916.09;;;-9.73;59.59
60087;BME280;45960;53.630;55.972;2023-02-13T00:11:26;100912.50;;;-9.78;59.52
60087;BME280;45960;53.630;55.972;2023-02-13T00:12:27;100903.09;;;-9.76;59.52
60087;BME280;45960;53.630;55.972;2023-02-13T00:13:27;100904.75;;;-9.78;59.41
60087;BME280;45960;53.630;55.972;2023-02-13T00:14:29;100892.81;;;-9.74;59.61
60087;BME280;45960;53.630;55.972;2023-02-13T00:15:30;100905.84;;;-9.70;59.56
60087;BME280;45960;53.630;55.972;2023-02-13T00:16:31;100911.09;;;-9.66;59.47
60087;BME280;45960;53.630;55.972;2023-02-13T00:17:32;100899.94;;;-9.65;59.56
60087;BME280;45960;53.630;55.972;2023-02-13T00:18:35;100899.22;;;-9.60;59.38
60087;BME280;45960;53.630;55.972;2023-02-13T00:19:36;100902.75;;;-9.56;59.50
60087;BME280;45960;53.630;55.972;2023-02-13T00:20:37;100907.94;;;-9.56;59.19
60087;BME280;45960;53.630;55.972;2023-02-13T00:21:38;100913.19;;;-9.53;59.16
60087;BME280;45960;53.630;55.972;2023-02-13T00:22:39;100920.72;;;-9.61;58.97
60087;BME280;45960;53.630;55.972;2023-02-13T00:23:40;100910.16;;;-9.70;59.43
60087;BME280;45960;53.630;55.972;2023-02-13T00:24:42;100918.03;;;-9.65;59.38
60087;BME280;45960;53.630;55.972;2023-02-13T00:25:43;100911.09;;;-9.66;59.44
60087;BME280;45960;53.630;55.972;2023-02-13T00:26:44;100904.19;;;-9.68;59.38
60087;BME280;45960;53.630;55.972;2023-02-13T00:27:45;100904.19;;;-9.68;59.59
60087;BME280;45960;53.630;55.972;2023-02-13T00:28:46;100897.34;;;-9.65;59.49
60087;BME280;45960;53.630;55.972;2023-02-13T00:29:47;100904.19;;;-9.68;59.62
60087;BME280;45960;53.630;55.972;2023-02-13T00:30:48;100902.53;;;-9.65;59.49
60087;BME280;45960;53.630;55.972;2023-02-13T00:31:49;100896.34;;;-9.71;59.21
60087;BME280;45960;53.630;55.972;2023-02-13T00:32:50;100899.84;;;-9.69;59.53
60087;BME280;45960;53.630;55.972;2023-02-13T00:33:51;100895.56;;;-9.66;59.42
60087;BME280;45960;53.630;55.972;2023-02-13T00:34:52;100897.28;;;-9.69;59.29
60087;BME280;45960;53.630;55.972;2023-02-13T00:36:01;100891.16;;;-9.71;59.53
60087;BME280;45960;53.630;55.972;2023-02-13T00:37:02;100892.09;;;-9.69;59.33
60087;BME280;45960;53.630;55.972;2023-02-13T00:38:04;100879.97;;;-9.70;59.55
60087;BME280;45960;53.630;55.972;2023-02-13T00:39:05;100900.94;;;-9.60;59.37
60087;BME280;45960;53.630;55.972;2023-02-13T00:40:06;100897.44;;;-9.62;59.30
60087;BME280;45960;53.630;55.972;2023-02-13T00:41:08;100901.00;;;-9.57;59.23
60087;BME280;45960;53.630;55.972;2023-02-13T00:42:10;100897.66;;;-9.53;59.20
60087;BME280;45960;53.630;55.972;2023-02-13T00:43:11;100906.25;;;-9.54;59.07
60087;BME280;45960;53.630;55.972;2023-02-13T00:44:12;100901.09;;;-9.54;58.98
60087;BME280;45960;53.630;55.972;2023-02-13T00:45:13;100906.00;;;-9.63;59.15
60087;BME280;45960;53.630;55.972;2023-02-13T00:46:15;100899.09;;;-9.64;59.46
60087;BME280;45960;53.630;55.972;2023-02-13T00:47:16;100899.16;;;-9.61;59.99
60087;BME280;45960;53.630;55.972;2023-02-13T00:48:17;100903.47;;;-9.62;60.59
60087;BME280;45960;53.630;55.972;2023-02-13T00:49:18;100911.09;;;-9.66;60.85
60087;BME280;45960;53.630;55.972;2023-02-13T00:50:19;100911.84;;;-9.71;61.02
60087;BME280;45960;53.630;55.972;2023-02-13T00:51:21;100916.09;;;-9.73;61.25
60087;BME280;45960;53.630;55.972;2023-02-13T00:52:22;100910.06;;;-9.73;61.20
60087;BME280;45960;53.630;55.972;2023-02-13T00:53:25;100907.63;;;-9.69;60.97
60087;BME280;45960;53.630;55.972;2023-02-13T00:54:26;100909.34;;;-9.68;60.88
60087;BME280;45960;53.630;55.972;2023-02-13T00:55:27;100903.34;;;-9.66;60.66
60087;BME280;45960;53.630;55.972;2023-02-13T00:56:28;100903.41;;;-9.63;60.42
60087;BME280;45960;53.630;55.972;2023-02-13T00:57:29;100901.72;;;-9.63;60.50
60087;BME280;45960;53.630;55.972;2023-02-13T00:58:32;100898.94;;;-9.71;60.74
60087;BME280;45960;53.630;55.972;2023-02-13T00:59:33;100903.06;;;-9.77;60.77
60087;BME280;45960;53.630;55.972;2023-02-13T01:00:34;100893.53;;;-9.80;61.03
60087;BME280;45960;53.630;55.972;2023-02-13T01:01:35;100898.41;;;-9.89;61.29
60087;BME280;45960;53.630;55.972;2023-02-13T01:02:36;100897.53;;;-9.91;61.58
60087;BME280;45960;53.630;55.972;2023-02-13T01:03:37;100892.44;;;-9.88;61.52
60087;BME280;45960;53.630;55.972;2023-02-13T01:04:38;100900.28;;;-9.85;61.82
60087;BME280;45960;53.630;55.972;2023-02-13T01:05:40;100895.09;;;-9.85;61.89
60087;BME280;45960;53.630;55.972;2023-02-13T01:06:41;100886.34;;;-9.90;62.15
60087;BME280;45960;53.630;55.972;2023-02-13T01:07:42;100886.19;;;-9.96;62.03
60087;BME280;45960;53.630;55.972;2023-02-13T01:08:43;100887.75;;;-10.01;61.81
60087;BME280;45960;53.630;55.972;2023-02-13T01:09:44;100894.56;;;-10.05;61.76
60087;BME280;45960;53.630;55.972;2023-02-13T01:10:46;100894.50;;;-10.06;61.88
60087;BME280;45960;53.630;55.972;2023-02-13T01:11:48;100878.91;;;-10.09;61.84
60087;BME280;45960;53.630;55.972;2023-02-13T01:12:49;100896.25;;;-10.05;61.63
60087;BME280;45960;53.630;55.972;2023-02-13T01:13:50;100898.81;;;-10.07;61.38
60087;BME280;45960;53.630;55.972;2023-02-13T01:14:54;100892.78;;;-10.06;61.59
60087;BME280;45960;53.630;55.972;2023-02-13T01:15:55;100896.44;;;-9.99;61.46
60087;BME280;45960;53.630;55.972;2023-02-13T01:16:56;100896.69;;;-9.90;61.53
60087;BME280;45960;53.630;55.972;2023-02-13T01:17:57;100903.81;;;-9.81;61.38
60087;BME280;45960;53.630;55.972;2023-02-13T01:19:00;100898.09;;;-9.70;60.93
60087;BME280;45960;53.630;55.972;2023-02-13T01:20:01;100899.84;;;-9.69;60.72
60087;BME280;45960;53.630;55.972;2023-02-13T01:21:07;100897.34;;;-9.65;60.79
60087;BME280;45960;53.630;55.972;2023-02-13T01:22:14;100897.38;;;-9.64;60.45
60087;BME280;45960;53.630;55.972;2023-02-13T01:23:15;100894.84;;;-9.62;60.58
60087;BME280;45960;53.630;55.972;2023-02-13T01:24:17;100897.50;;;-9.59;60.47
60087;BME280;45960;53.630;55.972;2023-02-13T01:25:19;100901.16;;;-9.51;60.35
60087;BME280;45960;53.630;55.972;2023-02-13T01:26:22;100894.47;;;-9.43;60.30
60087;BME280;45960;53.630;55.972;2023-02-13T01:27:24;100904.81;;;-9.43;60.17
60087;BME280;45960;53.630;55.972;2023-02-13T01:28:25;100892.72;;;-9.44;60.26
60087;BME280;45960;53.630;55.972;2023-02-13T01:29:27;100897.22;;;-9.37;60.31
60087;BME280;45960;53.630;55.972;2023-02-13T01:30:28;100892.25;;;-9.29;60.04
60087;BME280;45960;53.630;55.972;2023-02-13T01:31:29;100886.34;;;-9.24;59.94
60087;BME280;45960;53.630;55.972;2023-02-13T01:32:31;100900.22;;;-9.20;59.80
60087;BME280;45960;53.630;55.972;2023-02-13T01:33:32;100898.56;;;-9.16;59.67
60087;BME280;45960;53.630;55.972;2023-02-13T01:34:33;100902.09;;;-9.14;59.67
60087;BME280;45960;53.630;55.972;2023-02-13T01:35:34;100905.44;;;-9.18;59.73
60087;BME280;45960;53.630;55.972;2023-02-13T01:36:36;100900.16;;;-9.21;59.69
60087;BME280;45960;53.630;55.972;2023-02-13T01:37:37;100903.38;;;-9.32;59.90
60087;BME280;45960;53.630;55.972;2023-02-13T01:38:39;100901.47;;;-9.39;60.31
60087;BME280;45960;53.630;55.972;2023-02-13T01:39:41;100897.97;;;-9.41;60.12
60087;BME280;45960;53.630;55.972;2023-02-13T01:40:50;100903.06;;;-9.44;60.20
60087;BME280;45960;53.630;55.972;2023-02-13T01:41:52;100905.53;;;-9.49;60.44
60087;BME280;45960;53.630;55.972;2023-02-13T01:42:53;100900.28;;;-9.52;60.35
60087;BME280;45960;53.630;55.972;2023-02-13T01:43:59;100900.22;;;-9.55;60.56
60087;BME280;45960;53.630;55.972;2023-02-13T01:45:26;100896.00;;;-9.51;60.53
60087;BME280;45960;53.630;55.972;2023-02-13T01:46:31;100894.06;;;-9.58;60.42
60087;BME280;45960;53.630;55.972;2023-02-13T01:47:41;100895.75;;;-9.60;60.72
60087;BME280;45960;53.630;55.972;2023-02-13T01:48:47;100902.75;;;-9.56;60.66
60087;BME280;45960;53.630;55.972;2023-02-13T01:49:50;100907.22;;;-9.51;60.73
60087;BME280;45960;53.630;55.972;2023-02-13T01:51:03;100898.59;;;-9.50;60.63
60087;BME280;45960;53.630;55.972;2023-02-13T01:52:05;100887.31;;;-9.53;60.47
60087;BME280;45960;53.630;55.972;2023-02-13T01:53:41;100900.53;;;-9.42;60.44
60087;BME280;45960;53.630;55.972;2023-02-13T01:54:41;100897.97;;;-9.41;60.45
60087;BME280;45960;53.630;55.972;2023-02-13T01:55:51;100899.81;;;-9.37;60.60
60087;BME280;45960;53.630;55.972;2023-02-13T01:56:58;100892.78;;;-9.41;60.61
60087;BME280;45960;53.630;55.972;2023-02-13T01:58:06;100889.38;;;-9.40;60.84
60087;BME280;45960;53.630;55.972;2023-02-13T01:59:12;100889.38;;;-9.40;60.81
60087;BME280;45960;53.630;55.972;2023-02-13T02:00:15;100897.16;;;-9.38;60.86
60087;BME280;45960;53.630;55.972;2023-02-13T02:01:20;100890.03;;;-9.49;60.94
60087;BME280;45960;53.630;55.972;2023-02-13T02:02:22;100882.06;;;-9.56;61.15
60087;BME280;45960;53.630;55.972;2023-02-13T02:03:29;100884.66;;;-9.56;61.34
60087;BME280;45960;53.630;55.972;2023-02-13T02:04:38;100890.47;;;-9.63;61.52
60087;BME280;45960;53.630;55.972;2023-02-13T02:05:48;100883.50;;;-9.68;61.57
60087;BME280;45960;53.630;55.972;2023-02-13T02:06:56;100881.50;;;-9.78;61.77
60087;BME280;45960;53.630;55.972;2023-02-13T02:08:01;100883.88;;;-9.85;61.94
60087;BME280;45960;53.630;55.972;2023-02-13T02:09:11;100886.34;;;-9.90;62.10
60087;BME280;45960;53.630;55.972;2023-02-13T02:10:16;100890.50;;;-9.95;62.21
60087;BME280;45960;53.630;55.972;2023-02-13T02:11:49;100894.75;;;-9.97;62.42
60087;BME280;45960;53.630;55.972;2023-02-13T02:14:03;100904.91;;;-10.03;62.72
60087;BME280;45960;53.630;55.972;2023-02-13T02:15:28;100897.16;;;-10.03;62.76
60087;BME280;45960;53.630;55.972;2023-02-13T02:16:30;100905.09;;;-9.97;62.74
60087;BME280;45960;53.630;55.972;2023-02-13T02:17:32;100910.34;;;-9.94;62.66
60087;BME280;45960;53.630;55.972;2023-02-13T02:18:33;100902.41;;;-10.00;62.86
60087;BME280;45960;53.630;55.972;2023-02-13T02:19:46;100903.09;;;-10.07;63.10
60087;BME280;45960;53.630;55.972;2023-02-13T02:29:01;100897.38;;;-9.96;63.37
60087;BME280;45960;53.630;55.972;2023-02-13T02:30:28;100900.81;;;-9.97;63.52
60087;BME280;45960;53.630;55.972;2023-02-13T02:35:34;100908.75;;;-9.89;63.10
60087;BME280;45960;53.630;55.972;2023-02-13T02:38:13;100903.78;;;-9.83;63.25
60087;BME280;45960;53.630;55.972;2023-02-13T02:40:45;100908.25;;;-9.77;63.25
60087;BME280;45960;53.630;55.972;2023-02-13T02:43:40;100902.97;;;-9.80;63.61
60087;BME280;45960;53.630;55.972;2023-02-13T02:45:11;100899.66;;;-9.75;63.76
60087;BME280;45960;53.630;55.972;2023-02-13T02:46:23;100900.56;;;-9.74;63.54
60087;BME280;45960;53.630;55.972;2023-02-13T02:49:17;100897.94;;;-9.76;63.69
60087;BME280;45960;53.630;55.972;2023-02-13T02:54:42;100891.91;;;-9.75;63.67
60087;BME280;45960;53.630;55.972;2023-02-13T02:56:17;100889.16;;;-9.81;63.70
60087;BME280;45960;53.630;55.972;2023-02-13T02:57:27;100888.16;;;-9.86;63.93
60087;BME280;45960;53.630;55.972;2023-02-13T02:58:59;100890.00;;;-9.82;63.98
60087;BME280;45960;53.630;55.972;2023-02-13T03:00:22;100886.75;;;-9.75;64.01
60087;BME280;45960;53.630;55.972;2023-02-13T03:01:44;100884.84;;;-9.82;63.93
60087;BME280;45960;53.630;55.972;2023-02-13T03:03:08;100891.66;;;-9.85;63.91
60087;BME280;45960;53.630;55.972;2023-02-13T03:04:37;100887.13;;;-9.93;64.03
60087;BME280;45960;53.630;55.972;2023-02-13T03:06:01;100882.59;;;-10.01;64.20
60087;BME280;45960;53.630;55.972;2023-02-13T03:07:16;100881.72;;;-10.02;64.23
60087;BME280;45960;53.630;55.972;2023-02-13T03:08:17;100881.66;;;-10.03;64.19
60087;BME280;45960;53.630;55.972;2023-02-13T03:09:42;100885.91;;;-10.05;64.29
60087;BME280;45960;53.630;55.972;2023-02-13T03:11:03;100884.16;;;-10.06;64.32
60087;BME280;45960;53.630;55.972;2023-02-13T03:12:29;100885.81;;;-10.08;64.21
60087;BME280;45960;53.630;55.972;2023-02-13T03:13:52;100884.06;;;-10.09;64.44
60087;BME280;45960;53.630;55.972;2023-02-13T03:14:53;100880.72;;;-10.05;64.29
60087;BME280;45960;53.630;55.972;2023-02-13T03:15:57;100881.72;;;-10.02;64.39
60087;BME280;45960;53.630;55.972;2023-02-13T03:17:31;100882.75;;;-9.95;64.38
60087;BME280;45960;53.630;55.972;2023-02-13T03:18:54;100877.66;;;-9.92;64.14
60087;BME280;45960;53.630;55.972;2023-02-13T03:20:41;100883.69;;;-9.93;64.18
60087;BME280;45960;53.630;55.972;2023-02-13T03:24:24;100865.78;;;-10.17;64.37
60087;BME280;45960;53.630;55.972;2023-02-13T03:25:28;100872.63;;;-10.19;64.53
60087;BME280;45960;53.630;55.972;2023-02-13T03:26:57;100866.38;;;-10.26;65.43
60087;BME280;45960;53.630;55.972;2023-02-13T03:29:59;100869.78;;;-10.30;65.65
60087;BME280;45960;53.630;55.972;2023-02-13T03:33:02;100870.09;;;-10.48;65.58
60087;BME280;45960;53.630;55.972;2023-02-13T03:34:18;100877.63;;;-10.55;65.73
60087;BME280;45960;53.630;55.972;2023-02-13T03:38:42;100872.47;;;-10.55;65.85
60087;BME280;45960;53.630;55.972;2023-02-13T03:40:02;100869.06;;;-10.54;65.87
60087;BME280;45960;53.630;55.972;2023-02-13T03:41:19;100868.13;;;-10.56;65.81
60087;BME280;45960;53.630;55.972;2023-02-13T03:44:14;100871.09;;;-10.44;65.55
60087;BME280;45960;53.630;55.972;2023-02-13T03:45:21;100869.28;;;-10.47;65.50
60087;BME280;45960;53.630;55.972;2023-02-13T03:46:47;100871.09;;;-10.44;65.39
60087;BME280;45960;53.630;55.972;2023-02-13T03:47:53;100872.81;;;-10.43;65.26
60087;BME280;45960;53.630;55.972;2023-02-13T03:48:55;100882.44;;;-10.38;65.26
60087;BME280;45960;53.630;55.972;2023-02-13T03:50:17;100879.09;;;-10.35;65.19
60087;BME280;45960;53.630;55.972;2023-02-13T03:51:25;100871.44;;;-10.32;65.33
60087;BME280;45960;53.630;55.972;2023-02-13T03:52:31;100873.34;;;-10.25;65.08
60087;BME280;45960;53.630;55.972;2023-02-13T03:53:37;100873.50;;;-10.19;65.05
60087;BME280;45960;53.630;55.972;2023-02-13T03:54:49;100873.75;;;-10.09;64.86
60087;BME280;45960;53.630;55.972;2023-02-13T03:56:12;100871.38;;;-10.02;64.71
60087;BME280;45960;53.630;55.972;2023-02-13T03:57:35;100869.91;;;-9.92;64.50
60087;BME280;45960;53.630;55.972;2023-02-13T03:58:58;100881.34;;;-9.84;64.28
60087;BME280;45960;53.630;55.972;2023-02-13T04:00:18;100870.06;;;-9.86;64.08
60087;BME280;45960;53.630;55.972;2023-02-13T04:01:24;100874.34;;;-9.88;64.21
60087;BME280;45960;53.630;55.972;2023-02-13T04:02:31;100877.63;;;-9.94;64.07
60087;BME280;45960;53.630;55.972;2023-02-13T04:03:41;100877.66;;;-9.92;64.35
60087;BME280;45960;53.630;55.972;2023-02-13T04:06:14;100871.84;;;-9.85;63.96
60087;BME280;45960;53.630;55.972;2023-02-13T04:07:17;100873.34;;;-9.92;63.89
60087;BME280;45960;53.630;55.972;2023-02-13T04:08:31;100875.84;;;-9.96;64.26
60087;BME280;45960;53.630;55.972;2023-02-13T04:09:36;100866.44;;;-9.93;64.24
60087;BME280;45960;53.630;55.972;2023-02-13T04:10:49;100861.34;;;-9.89;64.15
60087;BME280;45960;53.630;55.972;2023-02-13T04:12:01;100859.56;;;-9.92;64.28
60087;BME280;45960;53.630;55.972;2023-02-13T04:13:21;100870.75;;;-9.93;64.54
60087;BME280;45960;53.630;55.972;2023-02-13T04:16:15;100858.34;;;-9.73;64.29
60087;BME280;45960;53.630;55.972;2023-02-13T04:17:23;100864.38;;;-9.73;64.28
60087;BME280;45960;53.630;55.972;2023-02-13T04:18:31;100858.28;;;-9.75;64.21
60087;BME280;45960;53.630;55.972;2023-02-13T04:19:33;100858.97;;;-9.82;64.86
60087;BME280;45960;53.630;55.972;2023-02-13T04:20:34;100862.41;;;-9.83;64.89
60087;BME280;45960;53.630;55.972;2023-02-13T04:21:37;100869.41;;;-9.79;64.96
60087;BME280;45960;53.630;55.972;2023-02-13T04:22:44;100874.72;;;-9.73;65.40
60087;BME280;45960;53.630;55.972;2023-02-13T04:23:45;100857.41;;;-9.77;65.68
60087;BME280;45960;53.630;55.972;2023-02-13T04:24:47;100864.38;;;-9.73;65.72
60087;BME280;45960;53.630;55.972;2023-02-13T04:25:51;100855.72;;;-9.75;65.88
60087;BME280;45960;53.630;55.972;2023-02-13T04:26:54;100875.88;;;-9.63;66.01
60087;BME280;45960;53.630;55.972;2023-02-13T04:27:55;100880.84;;;-9.71;66.38
60087;BME280;45960;53.630;55.972;2023-02-13T04:28:56;100876.50;;;-9.72;66.62
60087;BME280;45960;53.630;55.972;2023-02-13T04:29:57;100874.88;;;-9.66;66.83
60087;BME280;45960;53.630;55.972;2023-02-13T04:31:06;100861.22;;;-9.62;66.94
60087;BME280;45960;53.630;55.972;2023-02-13T04:32:11;100868.13;;;-9.61;67.27
60087;BME280;45960;53.630;55.972;2023-02-13T04:33:16;100864.75;;;-9.59;67.49
60087;BME280;45960;53.630;55.972;2023-02-13T04:34:17;100869.72;;;-9.66;67.65
60087;BME280;45960;53.630;55.972;2023-02-13T04:35:19;100866.31;;;-9.65;68.19
60087;BME280;45960;53.630;55.972;2023-02-13T04:36:20;100862.88;;;-9.64;68.02
60087;BME280;45960;53.630;55.972;2023-02-13T04:37:22;100866.38;;;-9.62;68.43
60087;BME280;45960;53.630;55.972;2023-02-13T04:38:24;100863.72;;;-9.65;68.72
60087;BME280;45960;53.630;55.972;2023-02-13T04:39:25;100868.13;;;-9.61;68.53
60087;BME280;45960;53.630;55.972;2023-02-13T04:40:26;100878.47;;;-9.61;68.63
60087;BME280;45960;53.630;55.972;2023-02-13T04:41:28;100859.44;;;-9.63;68.85
60087;BME280;45960;53.630;55.972;2023-02-13T04:42:29;100883.88;;;-9.52;68.70
60087;BME280;45960;53.630;55.972;2023-02-13T04:43:30;100887.28;;;-9.55;69.14
60087;BME280;45960;53.630;55.972;2023-02-13T04:44:31;100895.03;;;-9.55;68.88
60087;BME280;45960;53.630;55.972;2023-02-13T04:45:32;100899.31;;;-9.55;69.41
60087;BME280;45960;53.630;55.972;2023-02-13T04:46:33;100898.38;;;-9.59;69.48
60087;BME280;45960;53.630;55.972;2023-02-13T04:47:34;100897.56;;;-9.56;69.77
60087;BME280;45960;53.630;55.972;2023-02-13T04:48:35;100895.91;;;-9.54;69.69
60087;BME280;45960;53.630;55.972;2023-02-13T04:49:36;100898.44;;;-9.57;69.56
60087;BME280;45960;53.630;55.972;2023-02-13T04:50:37;100898.44;;;-9.56;69.77
60087;BME280;45960;53.630;55.972;2023-02-13T04:51:38;100902.91;;;-9.50;69.95
60087;BME280;45960;53.630;55.972;2023-02-13T04:52:40;100887.44;;;-9.49;69.84
60087;BME280;45960;53.630;55.972;2023-02-13T04:53:41;100897.88;;;-9.44;69.87
60087;BME280;45960;53.630;55.972;2023-02-13T04:54:42;100889.31;;;-9.43;69.76
60087;BME280;45960;53.630;55.972;2023-02-13T04:55:43;100892.13;;;-9.34;69.57
60087;BME280;45960;53.630;55.972;2023-02-13T04:56:44;100893.19;;;-9.26;69.44
60087;BME280;45960;53.630;55.972;2023-02-13T04:57:45;100898.63;;;-9.15;69.16
60087;BME280;45960;53.630;55.972;2023-02-13T04:58:46;100898.56;;;-9.16;69.45
60087;BME280;45960;53.630;55.972;2023-02-13T04:59:47;100903.81;;;-9.13;69.77
60087;BME280;45960;53.630;55.972;2023-02-13T05:00:52;100912.72;;;-9.02;69.90
60087;BME280;45960;53.630;55.972;2023-02-13T05:01:57;100904.28;;;-8.95;69.73
60087;BME280;45960;53.630;55.972;2023-02-13T05:03:07;100904.50;;;-8.86;69.56
60087;BME280;45960;53.630;55.972;2023-02-13T05:04:09;100906.25;;;-8.85;69.28
60087;BME280;45960;53.630;55.972;2023-02-13T05:05:14;100903.00;;;-8.76;69.03
60087;BME280;45960;53.630;55.972;2023-02-13T05:06:17;100904.88;;;-8.69;68.93
60087;BME280;45960;53.630;55.972;2023-02-13T05:07:20;100904.00;;;-8.71;69.03
60087;BME280;45960;53.630;55.972;2023-02-13T05:08:22;100906.59;;;-8.69;68.95
60087;BME280;45960;53.630;55.972;2023-02-13T05:09:26;100903.03;;;-8.74;69.34
60087;BME280;45960;53.630;55.972;2023-02-13T05:10:40;100902.03;;;-8.80;69.53
60087;BME280;45960;53.630;55.972;2023-02-13T05:11:42;100906.53;;;-8.72;69.52
60087;BME280;45960;53.630;55.972;2023-02-13T05:12:47;100901.22;;;-8.77;69.64
60087;BME280;45960;53.630;55.972;2023-02-13T05:13:48;100902.97;;;-8.77;69.92
60087;BME280;45960;53.630;55.972;2023-02-13T05:14:52;100904.69;;;-8.76;69.61
60087;BME280;45960;53.630;55.972;2023-02-13T05:15:54;100901.09;;;-8.85;69.89
60087;BME280;45960;53.630;55.972;2023-02-13T05:16:58;100886.84;;;-9.02;70.07
60087;BME280;45960;53.630;55.972;2023-02-13T05:18:02;100892.09;;;-8.99;70.28
60087;BME280;45960;53.630;55.972;2023-02-13T05:19:10;100897.25;;;-8.99;70.66
60087;BME280;45960;53.630;55.972;2023-02-13T05:20:13;100890.53;;;-8.92;70.51
60087;BME280;45960;53.630;55.972;2023-02-13T05:21:17;100890.69;;;-8.86;70.58
60087;BME280;45960;53.630;55.972;2023-02-13T05:22:36;100881.22;;;-8.84;70.28
60087;BME280;45960;53.630;55.972;2023-02-13T05:24:11;100880.38;;;-8.83;70.33
60087;BME280;45960;53.630;55.972;2023-02-13T05:25:22;100877.94;;;-8.77;70.12
60087;BME280;45960;53.630;55.972;2023-02-13T05:26:23;100886.00;;;-8.63;70.13
60087;BME280;45960;53.630;55.972;2023-02-13T05:27:25;100880.97;;;-8.57;69.75
60087;BME280;45960;53.630;55.972;2023-02-13T05:28:36;100881.06;;;-8.54;69.46
60087;BME280;45960;53.630;55.972;2023-02-13T05:29:57;100878.47;;;-8.54;69.43
60087;BME280;45960;53.630;55.972;2023-02-13T05:31:00;100887.16;;;-8.50;69.45
60087;BME280;45960;53.630;55.972;2023-02-13T05:32:01;100875.94;;;-8.51;69.33
60087;BME280;45960;53.630;55.972;2023-02-13T05:33:03;100890.75;;;-8.45;69.38
60087;BME280;45960;53.630;55.972;2023-02-13T05:34:05;100890.69;;;-8.47;69.18
60087;BME280;45960;53.630;55.972;2023-02-13T05:35:07;100893.22;;;-8.50;69.43
60087;BME280;45960;53.630;55.972;2023-02-13T05:36:09;100887.06;;;-8.55;69.53
60087;BME280;45960;53.630;55.972;2023-02-13T05:37:10;100899.06;;;-8.59;69.76
60087;BME280;45960;53.630;55.972;2023-02-13T05:38:11;100896.50;;;-8.57;70.09
60087;BME280;45960;53.630;55.972;2023-02-13T05:39:13;100880.97;;;-8.57;69.96
60087;BME280;45960;53.630;55.972;2023-02-13T05:40:15;100896.66;;;-8.51;69.78
60087;BME280;45960;53.630;55.972;2023-02-13T05:41:18;100886.38;;;-8.48;69.76
60087;BME280;45960;53.630;55.972;2023-02-13T05:42:21;100889.00;;;-8.45;69.84
60087;BME280;45960;53.630;55.972;2023-02-13T05:43:23;100882.22;;;-8.40;69.33
60087;BME280;45960;53.630;55.972;2023-02-13T05:44:24;100883.13;;;-8.35;69.60
60087;BME280;45960;53.630;55.972;2023-02-13T05:45:25;100873.53;;;-8.40;69.65
60087;BME280;45960;53.630;55.972;2023-02-13T05:46:26;100877.19;;;-8.29;69.69
60087;BME280;45960;53.630;55.972;2023-02-13T05:47:27;100876.63;;;-8.16;69.76
60087;BME280;45960;53.630;55.972;2023-02-13T05:48:29;100875.16;;;-8.03;69.38
60087;BME280;45960;53.630;55.972;2023-02-13T05:49:32;100875.44;;;-7.88;69.09
60087;BME280;45960;53.630;55.972;2023-02-13T05:50:34;100872.06;;;-7.83;68.92
60087;BME280;45960;53.630;55.972;2023-02-13T05:51:35;100874.78;;;-7.76;68.75
60087;BME280;45960;53.630;55.972;2023-02-13T05:52:37;100875.78;;;-7.69;68.60
60087;BME280;45960;53.630;55.972;2023-02-13T05:53:38;100875.84;;;-7.66;68.23
60087;BME280;45960;53.630;55.972;2023-02-13T05:54:39;100860.22;;;-7.69;68.15
60087;BME280;45960;53.630;55.972;2023-02-13T05:55:40;100867.16;;;-7.68;67.97
60087;BME280;45960;53.630;55.972;2023-02-13T05:56:42;100875.00;;;-7.65;67.94
60087;BME280;45960;53.630;55.972;2023-02-13T05:57:43;100859.41;;;-7.67;67.89
60087;BME280;45960;53.630;55.972;2023-02-13T05:58:44;100868.97;;;-7.64;67.90
60087;BME280;45960;53.630;55.972;2023-02-13T05:59:46;100867.31;;;-7.59;68.07
60087;BME280;45960;53.630;55.972;2023-02-13T06:00:47;100869.19;;;-7.52;67.66
60087;BME280;45960;53.630;55.972;2023-02-13T06:01:53;100865.84;;;-7.45;67.45
60087;BME280;45960;53.630;55.972;2023-02-13T06:02:54;100869.38;;;-7.39;67.25
60087;BME280;45960;53.630;55.972;2023-02-13T06:03:55;100863.31;;;-7.40;66.98
60087;BME280;45960;53.630;55.972;2023-02-13T06:04:56;100863.28;;;-7.43;66.83
60087;BME280;45960;53.630;55.972;2023-02-13T06:05:58;100862.41;;;-7.44;66.99
60087;BME280;45960;53.630;55.972;2023-02-13T06:06:59;100867.59;;;-7.44;66.75
60087;BME280;45960;53.630;55.972;2023-02-13T06:08:05;100865.81;;;-7.48;66.84
60087;BME280;45960;53.630;55.972;2023-02-13T06:09:06;100863.88;;;-7.58;66.38
60087;BME280;45960;53.630;55.972;2023-02-13T06:10:12;100871.56;;;-7.62;66.86
60087;BME280;45960;53.630;55.972;2023-02-13T06:11:20;100861.97;;;-7.68;66.99
60087;BME280;45960;53.630;55.972;2023-02-13T06:12:23;100859.41;;;-7.67;66.84
60087;BME280;45960;53.630;55.972;2023-02-13T06:13:25;100860.31;;;-7.63;67.02
60087;BME280;45960;53.630;55.972;2023-02-13T06:14:26;100863.06;;;-7.54;66.91
60087;BME280;45960;53.630;55.972;2023-02-13T06:15:27;100862.41;;;-7.44;66.83
60087;BME280;45960;53.630;55.972;2023-02-13T06:16:28;100861.63;;;-7.38;66.53